sensor_id;sensor_type;location;lat;lon;timestamp;pressure;altitude;pressure_sealevel;temperature;humidity
42411;BME280;28056;51.112;0.984;2023-04-01T00:04:47;98804.92;;;6.23;100.00
42411;BME280;28056;51.112;0.984;2023-04-01T00:07:14;98804.21;;;6.06;100.00
42411;BME280;28056;51.112;0.984;2023-04-01T00:09:42;98802.31;;;6.05;100.00
42411;BME280;28056;51.112;0.984;2023-04-01T00:12:09;98803.67;;;6.52;100.00
42411;BME280;28056;51.112;0.984;2023-04-01T00:14:37;98806.55;;;6.07;100.00
42411;BME280;28056;51.112;0.984;2023-04-01T00:17:04;98810.04;;;6.33;100.00
42411;BME280;28056;51.112;0.984;2023-04-01T00:19:31;98814.16;;;6.27;100.00
42411;BME280;28056;51.112;0.984;2023-04-01T00:21:58;98817.28;;;6.35;100.00
42411;BME280;28056;51.112;0.984;2023-04-01T00:24:25;98822.12;;;6.29;100.00
42411;BME280;28056;51.112;0.984;2023-04-01T00:26:52;98827.59;;;6.54;100.00
42411;BME280;28056;51.112;0.984;2023-04-01T00:29:19;98828.30;;;6.15;100.00
42411;BME280;28056;51.112;0.984;2023-04-01T00:31:47;98833.49;;;6.14;100.00
42411;BME280;28056;51.112;0.984;2023-04-01T00:34:15;98836.87;;;6.47;100.00
42411;BME280;28056;51.112;0.984;2023-04-01T00:36:41;98842.22;;;6.40;100.00
42411;BME280;28056;51.112;0.984;2023-04-01T00:39:08;98848.61;;;6.23;100.00
42411;BME280;28056;51.112;0.984;2023-04-01T00:41:35;98849.68;;;6.66;100.00
42411;BME280;28056;51.112;0.984;2023-04-01T00:44:20;98851.39;;;6.23;100.00
42411;BME280;28056;51.112;0.984;2023-04-01T00:46:49;98852.57;;;6.57;100.00
42411;BME280;28056;51.112;0.984;2023-04-01T00:49:19;98848.96;;;6.29;100.00
42411;BME280;28056;51.112;0.984;2023-04-01T00:51:48;98858.68;;;6.32;100.00
42411;BME280;28056;51.112;0.984;2023-04-01T00:54:18;98857.43;;;6.06;100.00
42411;BME280;28056;51.112;0.984;2023-04-01T00:56:49;98866.25;;;6.31;100.00
42411;BME280;28056;51.112;0.984;2023-04-01T00:59:21;98870.69;;;6.14;100.00
42411;BME280;28056;51.112;0.984;2023-04-01T01:01:50;98871.70;;;6.38;100.00
42411;BME280;28056;51.112;0.984;2023-04-01T01:04:23;98875.15;;;6.42;100.00
42411;BME280;28056;51.112;0.984;2023-04-01T01:06:57;98877.84;;;6.50;100.00
42411;BME280;28056;51.112;0.984;2023-04-01T01:09:34;98885.37;;;6.17;100.00
42411;BME280;28056;51.112;0.984;2023-04-01T01:12:11;98883.26;;;6.23;100.00
42411;BME280;28056;51.112;0.984;2023-04-01T01:14:49;98888.14;;;5.85;100.00
42411;BME280;28056;51.112;0.984;2023-04-01T01:17:26;98890.20;;;6.00;100.00
42411;BME280;28056;51.112;0.984;2023-04-01T01:20:26;98894.08;;;5.97;100.00
42411;BME280;28056;51.112;0.984;2023-04-01T01:23:21;98901.85;;;6.41;100.00
42411;BME280;28056;51.112;0.984;2023-04-01T01:26:06;98904.86;;;6.32;100.00
42411;BME280;28056;51.112;0.984;2023-04-01T01:28:43;98907.00;;;6.50;100.00
42411;BME280;28056;51.112;0.984;2023-04-01T01:31:17;98909.17;;;6.19;100.00
42411;BME280;28056;51.112;0.984;2023-04-01T01:33:58;98914.21;;;6.19;100.00
42411;BME280;28056;51.112;0.984;2023-04-01T01:36:32;98918.19;;;6.38;100.00
42411;BME280;28056;51.112;0.984;2023-04-01T01:39:00;98918.57;;;6.26;100.00
42411;BME280;28056;51.112;0.984;2023-04-01T01:41:29;98921.42;;;6.18;100.00
42411;BME280;28056;51.112;0.984;2023-04-01T01:44:00;98922.27;;;6.31;100.00
42411;BME280;28056;51.112;0.984;2023-04-01T01:46:31;98926.40;;;6.18;100.00
42411;BME280;28056;51.112;0.984;2023-04-01T01:49:00;98929.68;;;6.13;100.00
42411;BME280;28056;51.112;0.984;2023-04-01T01:51:29;98933.19;;;6.57;100.00
42411;BME280;28056;51.112;0.984;2023-04-01T01:53:57;98934.49;;;6.37;100.00
42411;BME280;28056;51.112;0.984;2023-04-01T01:56:27;98938.59;;;6.15;100.00
42411;BME280;28056;51.112;0.984;2023-04-01T01:58:58;98939.66;;;6.43;100.00
42411;BME280;28056;51.112;0.984;2023-04-01T02:01:39;98945.44;;;6.43;100.00
42411;BME280;28056;51.112;0.984;2023-04-01T02:04:14;98947.72;;;6.34;100.00
42411;BME280;28056;51.112;0.984;2023-04-01T02:06:46;98948.60;;;6.11;100.00
42411;BME280;28056;51.112;0.984;2023-04-01T02:09:17;98954.55;;;6.13;100.00
42411;BME280;28056;51.112;0.984;2023-04-01T02:11:48;98955.31;;;6.16;100.00
42411;BME280;28056;51.112;0.984;2023-04-01T02:14:18;98961.42;;;6.33;100.00
42411;BME280;28056;51.112;0.984;2023-04-01T02:16:51;98955.46;;;6.29;100.00
42411;BME280;28056;51.112;0.984;2023-04-01T02:19:22;98956.70;;;6.11;100.00
42411;BME280;28056;51.112;0.984;2023-04-01T02:21:56;98961.35;;;6.25;100.00
42411;BME280;28056;51.112;0.984;2023-04-01T02:24:25;98965.96;;;6.20;100.00
42411;BME280;28056;51.112;0.984;2023-04-01T02:26:53;98969.37;;;6.25;100.00
42411;BME280;28056;51.112;0.984;2023-04-01T02:29:23;98973.14;;;6.01;100.00
42411;BME280;28056;51.112;0.984;2023-04-01T02:31:53;98979.23;;;6.30;100.00
42411;BME280;28056;51.112;0.984;2023-04-01T02:34:22;98978.34;;;5.99;100.00
42411;BME280;28056;51.112;0.984;2023-04-01T02:36:50;98987.61;;;5.69;100.00
42411;BME280;28056;51.112;0.984;2023-04-01T02:39:18;98991.58;;;5.70;100.00
42411;BME280;28056;51.112;0.984;2023-04-01T02:41:46;98985.14;;;5.61;100.00
42411;BME280;28056;51.112;0.984;2023-04-01T02:44:14;98989.04;;;5.65;100.00
42411;BME280;28056;51.112;0.984;2023-04-01T02:46:42;98991.83;;;5.78;100.00
42411;BME280;28056;51.112;0.984;2023-04-01T02:49:10;98994.70;;;5.54;100.00
42411;BME280;28056;51.112;0.984;2023-04-01T02:51:37;98999.14;;;5.78;100.00
42411;BME280;28056;51.112;0.984;2023-04-01T02:54:05;99000.54;;;5.73;100.00
42411;BME280;28056;51.112;0.984;2023-04-01T02:56:33;99002.86;;;5.54;100.00
42411;BME280;28056;51.112;0.984;2023-04-01T02:58:59;99008.46;;;5.81;100.00
42411;BME280;28056;51.112;0.984;2023-04-01T03:01:27;99012.26;;;5.76;100.00
42411;BME280;28056;51.112;0.984;2023-04-01T03:03:55;99016.25;;;5.68;100.00
42411;BME280;28056;51.112;0.984;2023-04-01T03:06:23;99021.68;;;5.79;100.00
42411;BME280;28056;51.112;0.984;2023-04-01T03:08:50;99025.27;;;5.77;100.00
42411;BME280;28056;51.112;0.984;2023-04-01T03:11:17;99025.84;;;5.72;100.00
42411;BME280;28056;51.112;0.984;2023-04-01T03:13:44;99025.58;;;5.43;100.00
42411;BME280;28056;51.112;0.984;2023-04-01T03:16:11;99029.74;;;5.44;100.00
42411;BME280;28056;51.112;0.984;2023-04-01T03:18:38;99037.62;;;5.53;100.00
42411;BME280;28056;51.112;0.984;2023-04-01T03:21:14;99038.20;;;5.43;100.00
42411;BME280;28056;51.112;0.984;2023-04-01T03:23:41;99039.69;;;5.14;100.00
42411;BME280;28056;51.112;0.984;2023-04-01T03:26:09;99046.86;;;5.43;100.00
42411;BME280;28056;51.112;0.984;2023-04-01T03:28:37;99046.19;;;5.17;100.00
42411;BME280;28056;51.112;0.984;2023-04-01T03:31:05;99052.86;;;5.07;100.00
42411;BME280;28056;51.112;0.984;2023-04-01T03:33:33;99050.09;;;5.00;100.00
42411;BME280;28056;51.112;0.984;2023-04-01T03:36:00;99051.89;;;4.96;100.00
42411;BME280;28056;51.112;0.984;2023-04-01T03:38:28;99054.61;;;4.76;100.00
42411;BME280;28056;51.112;0.984;2023-04-01T03:40:55;99050.89;;;5.25;100.00
42411;BME280;28056;51.112;0.984;2023-04-01T03:43:22;99062.45;;;5.04;100.00
42411;BME280;28056;51.112;0.984;2023-04-01T03:45:50;99063.80;;;5.10;100.00
42411;BME280;28056;51.112;0.984;2023-04-01T03:48:18;99064.90;;;5.32;100.00
42411;BME280;28056;51.112;0.984;2023-04-01T03:50:46;99068.71;;;5.31;100.00
42411;BME280;28056;51.112;0.984;2023-04-01T03:53:14;99073.71;;;4.98;100.00
42411;BME280;28056;51.112;0.984;2023-04-01T03:55:41;99077.73;;;4.92;100.00
42411;BME280;28056;51.112;0.984;2023-04-01T03:58:09;99081.94;;;5.00;100.00
42411;BME280;28056;51.112;0.984;2023-04-01T04:00:37;99087.14;;;5.03;100.00
42411;BME280;28056;51.112;0.984;2023-04-01T04:03:06;99088.65;;;4.92;100.00
42411;BME280;28056;51.112;0.984;2023-04-01T04:05:33;99091.58;;;4.85;100.00
42411;BME280;28056;51.112;0.984;2023-04-01T04:08:00;99093.79;;;4.88;100.00
42411;BME280;28056;51.112;0.984;2023-04-01T04:10:29;99097.79;;;5.14;100.00
42411;BME280;28056;51.112;0.984;2023-04-01T04:12:56;99098.27;;;5.02;100.00
42411;BME280;28056;51.112;0.984;2023-04-01T04:15:24;99102.54;;;5.20;100.00
42411;BME280;28056;51.112;0.984;2023-04-01T04:17:51;99105.36;;;4.70;100.00
42411;BME280;28056;51.112;0.984;2023-04-01T04:20:19;99110.76;;;5.29;100.00
42411;BME280;28056;51.112;0.984;2023-04-01T04:22:46;99111.34;;;4.79;100.00
42411;BME280;28056;51.112;0.984;2023-04-01T04:26:46;99121.20;;;5.20;100.00
42411;BME280;28056;51.112;0.984;2023-04-01T04:29:13;99126.43;;;5.04;100.00
42411;BME280;28056;51.112;0.984;2023-04-01T04:31:40;99129.59;;;5.32;100.00
42411;BME280;28056;51.112;0.984;2023-04-01T04:34:12;99129.94;;;5.14;100.00
42411;BME280;28056;51.112;0.984;2023-04-01T04:36:39;99128.86;;;4.90;100.00
42411;BME280;28056;51.112;0.984;2023-04-01T04:39:06;99134.36;;;4.95;100.00
42411;BME280;28056;51.112;0.984;2023-04-01T04:41:33;99134.60;;;5.15;100.00
42411;BME280;28056;51.112;0.984;2023-04-01T04:44:04;99135.31;;;5.40;100.00
42411;BME280;28056;51.112;0.984;2023-04-01T04:46:31;99136.06;;;5.31;100.00
42411;BME280;28056;51.112;0.984;2023-04-01T04:48:58;99139.27;;;5.15;100.00
42411;BME280;28056;51.112;0.984;2023-04-01T04:51:26;99143.75;;;5.16;100.00
42411;BME280;28056;51.112;0.984;2023-04-01T04:53:53;99147.47;;;4.71;100.00
42411;BME280;28056;51.112;0.984;2023-04-01T04:56:21;99149.04;;;4.79;100.00
42411;BME280;28056;51.112;0.984;2023-04-01T04:58:49;99157.25;;;4.87;100.00
42411;BME280;28056;51.112;0.984;2023-04-01T05:01:17;99158.78;;;4.72;100.00
42411;BME280;28056;51.112;0.984;2023-04-01T05:03:45;99161.33;;;4.87;100.00
42411;BME280;28056;51.112;0.984;2023-04-01T05:06:13;99167.62;;;4.67;100.00
42411;BME280;28056;51.112;0.984;2023-04-01T05:08:42;99170.38;;;5.04;100.00
42411;BME280;28056;51.112;0.984;2023-04-01T05:11:12;99172.75;;;4.74;100.00
42411;BME280;28056;51.112;0.984;2023-04-01T05:13:40;99172.73;;;4.94;100.00
42411;BME280;28056;51.112;0.984;2023-04-01T05:16:10;99173.62;;;4.43;100.00
42411;BME280;28056;51.112;0.984;2023-04-01T05:18:37;99178.84;;;4.75;100.00
42411;BME280;28056;51.112;0.984;2023-04-01T05:21:07;99181.57;;;4.81;100.00
42411;BME280;28056;51.112;0.984;2023-04-01T05:23:35;99185.19;;;4.56;100.00
42411;BME280;28056;51.112;0.984;2023-04-01T05:26:04;99187.18;;;4.93;100.00
42411;BME280;28056;51.112;0.984;2023-04-01T05:28:32;99185.33;;;4.99;100.00
42411;BME280;28056;51.112;0.984;2023-04-01T05:30:59;99189.87;;;4.73;100.00
42411;BME280;28056;51.112;0.984;2023-04-01T05:33:27;99189.42;;;5.04;100.00
42411;BME280;28056;51.112;0.984;2023-04-01T05:35:54;99190.40;;;4.92;100.00
42411;BME280;28056;51.112;0.984;2023-04-01T05:38:22;99193.03;;;5.23;100.00
42411;BME280;28056;51.112;0.984;2023-04-01T05:40:49;99194.54;;;4.90;100.00
42411;BME280;28056;51.112;0.984;2023-04-01T05:43:16;99194.87;;;4.79;100.00
42411;BME280;28056;51.112;0.984;2023-04-01T05:45:43;99198.80;;;5.16;100.00
42411;BME280;28056;51.112;0.984;2023-04-01T05:48:10;99199.59;;;4.88;100.00
42411;BME280;28056;51.112;0.984;2023-04-01T05:50:39;99200.99;;;4.89;100.00
42411;BME280;28056;51.112;0.984;2023-04-01T05:53:07;99203.26;;;4.60;100.00
42411;BME280;28056;51.112;0.984;2023-04-01T05:55:35;99208.16;;;5.14;100.00
42411;BME280;28056;51.112;0.984;2023-04-01T05:58:02;99210.45;;;4.92;100.00
42411;BME280;28056;51.112;0.984;2023-04-01T06:00:30;99207.98;;;4.65;100.00
42411;BME280;28056;51.112;0.984;2023-04-01T06:02:58;99212.86;;;5.05;100.00
42411;BME280;28056;51.112;0.984;2023-04-01T06:05:29;99217.65;;;5.05;100.00
42411;BME280;28056;51.112;0.984;2023-04-01T06:08:00;99217.96;;;4.90;100.00
42411;BME280;28056;51.112;0.984;2023-04-01T06:10:38;99222.37;;;4.83;100.00
42411;BME280;28056;51.112;0.984;2023-04-01T06:13:16;99227.31;;;4.57;100.00
42411;BME280;28056;51.112;0.984;2023-04-01T06:15:53;99233.47;;;4.57;100.00
42411;BME280;28056;51.112;0.984;2023-04-01T06:18:42;99241.29;;;4.76;100.00
42411;BME280;28056;51.112;0.984;2023-04-01T06:21:28;99245.65;;;4.33;100.00
42411;BME280;28056;51.112;0.984;2023-04-01T06:24:08;99247.81;;;4.54;100.00
42411;BME280;28056;51.112;0.984;2023-04-01T06:26:48;99249.13;;;4.60;100.00
42411;BME280;28056;51.112;0.984;2023-04-01T06:29:34;99249.01;;;4.79;100.00
42411;BME280;28056;51.112;0.984;2023-04-01T06:32:22;99256.26;;;4.46;100.00
42411;BME280;28056;51.112;0.984;2023-04-01T06:35:02;99258.97;;;4.52;100.00
42411;BME280;28056;51.112;0.984;2023-04-01T06:37:48;99266.02;;;4.56;100.00
42411;BME280;28056;51.112;0.984;2023-04-01T06:40:28;99269.14;;;4.79;100.00
42411;BME280;28056;51.112;0.984;2023-04-01T06:43:09;99269.46;;;5.01;100.00
42411;BME280;28056;51.112;0.984;2023-04-01T06:45:44;99269.49;;;4.82;100.00
42411;BME280;28056;51.112;0.984;2023-04-01T06:48:31;99276.12;;;4.71;100.00
42411;BME280;28056;51.112;0.984;2023-04-01T06:51:11;99270.39;;;4.59;100.00
42411;BME280;28056;51.112;0.984;2023-04-01T06:53:47;99276.58;;;4.92;100.00
42411;BME280;28056;51.112;0.984;2023-04-01T06:56:18;99275.38;;;4.98;100.00
42411;BME280;28056;51.112;0.984;2023-04-01T06:58:51;99281.51;;;5.24;100.00
42411;BME280;28056;51.112;0.984;2023-04-01T07:01:22;99288.52;;;5.09;100.00
42411;BME280;28056;51.112;0.984;2023-04-01T07:03:55;99290.81;;;5.38;100.00
42411;BME280;28056;51.112;0.984;2023-04-01T07:06:28;99290.03;;;5.14;100.00
42411;BME280;28056;51.112;0.984;2023-04-01T07:09:00;99293.12;;;5.30;100.00
42411;BME280;28056;51.112;0.984;2023-04-01T07:11:32;99294.78;;;5.14;100.00
42411;BME280;28056;51.112;0.984;2023-04-01T07:14:04;99292.20;;;4.78;100.00
42411;BME280;28056;51.112;0.984;2023-04-01T07:16:37;99298.31;;;4.86;100.00
42411;BME280;28056;51.112;0.984;2023-04-01T07:19:12;99298.03;;;4.84;100.00
42411;BME280;28056;51.112;0.984;2023-04-01T07:21:42;99301.55;;;4.97;100.00
42411;BME280;28056;51.112;0.984;2023-04-01T07:24:16;99302.90;;;4.89;100.00
42411;BME280;28056;51.112;0.984;2023-04-01T07:26:46;99303.93;;;4.83;100.00
42411;BME280;28056;51.112;0.984;2023-04-01T07:29:14;99306.95;;;4.45;100.00
42411;BME280;28056;51.112;0.984;2023-04-01T07:31:56;99305.72;;;4.73;100.00
42411;BME280;28056;51.112;0.984;2023-04-01T07:34:33;99310.78;;;4.81;100.00
42411;BME280;28056;51.112;0.984;2023-04-01T07:37:07;99310.44;;;4.60;100.00
42411;BME280;28056;51.112;0.984;2023-04-01T07:39:45;99320.99;;;4.76;100.00
42411;BME280;28056;51.112;0.984;2023-04-01T07:42:22;99324.19;;;5.02;100.00
42411;BME280;28056;51.112;0.984;2023-04-01T07:44:56;99332.07;;;4.34;100.00
42411;BME280;28056;51.112;0.984;2023-04-01T07:47:37;99332.54;;;4.19;100.00
42411;BME280;28056;51.112;0.984;2023-04-01T07:50:14;99338.51;;;4.58;100.00
42411;BME280;28056;51.112;0.984;2023-04-01T07:52:50;99342.84;;;4.74;100.00
42411;BME280;28056;51.112;0.984;2023-04-01T07:55:25;99348.80;;;4.58;100.00
42411;BME280;28056;51.112;0.984;2023-04-01T07:58:02;99356.76;;;4.21;100.00
42411;BME280;28056;51.112;0.984;2023-04-01T08:00:41;99362.48;;;4.60;100.00
42411;BME280;28056;51.112;0.984;2023-04-01T08:03:22;99365.15;;;4.39;100.00
42411;BME280;28056;51.112;0.984;2023-04-01T08:05:57;99370.57;;;4.71;100.00
42411;BME280;28056;51.112;0.984;2023-04-01T08:08:36;99369.73;;;5.10;100.00
42411;BME280;28056;51.112;0.984;2023-04-01T08:11:15;99371.46;;;4.79;100.00
42411;BME280;28056;51.112;0.984;2023-04-01T08:13:56;99375.83;;;5.26;100.00
42411;BME280;28056;51.112;0.984;2023-04-01T08:16:32;99382.68;;;5.64;100.00
42411;BME280;28056;51.112;0.984;2023-04-01T08:19:09;99387.26;;;5.39;100.00
42411;BME280;28056;51.112;0.984;2023-04-01T08:21:43;99390.27;;;5.02;100.00
42411;BME280;28056;51.112;0.984;2023-04-01T08:24:29;99396.54;;;5.12;100.00
42411;BME280;28056;51.112;0.984;2023-04-01T08:27:05;99398.43;;;4.85;100.00
42411;BME280;28056;51.112;0.984;2023-04-01T08:29:38;99404.88;;;5.38;100.00
42411;BME280;28056;51.112;0.984;2023-04-01T08:32:18;99400.88;;;5.31;100.00
42411;BME280;28056;51.112;0.984;2023-04-01T08:35:06;99404.26;;;4.31;100.00
42411;BME280;28056;51.112;0.984;2023-04-01T08:37:37;99409.43;;;4.51;100.00
42411;BME280;28056;51.112;0.984;2023-04-01T08:40:25;99415.54;;;4.80;100.00
42411;BME280;28056;51.112;0.984;2023-04-01T08:43:06;99415.43;;;4.16;100.00
42411;BME280;28056;51.112;0.984;2023-04-01T08:45:53;99422.51;;;4.27;100.00
42411;BME280;28056;51.112;0.984;2023-04-01T08:48:46;99423.55;;;4.37;100.00
42411;BME280;28056;51.112;0.984;2023-04-01T08:51:44;99422.27;;;4.04;100.00
42411;BME280;28056;51.112;0.984;2023-04-01T08:54:27;99429.63;;;4.72;100.00
42411;BME280;28056;51.112;0.984;2023-04-01T08:57:01;99427.95;;;4.47;100.00
42411;BME280;28056;51.112;0.984;2023-04-01T08:59:40;99434.09;;;4.18;100.00
42411;BME280;28056;51.112;0.984;2023-04-01T09:04:48;99440.29;;;5.27;100.00
42411;BME280;28056;51.112;0.984;2023-04-01T09:07:33;99440.59;;;4.58;100.00
42411;BME280;28056;51.112;0.984;2023-04-01T09:10:19;99444.79;;;4.78;100.00
42411;BME280;28056;51.112;0.984;2023-04-01T09:13:05;99445.00;;;5.20;100.00
42411;BME280;28056;51.112;0.984;2023-04-01T09:15:54;99448.11;;;4.76;100.00
42411;BME280;28056;51.112;0.984;2023-04-01T09:18:42;99453.14;;;4.76;100.00
42411;BME280;28056;51.112;0.984;2023-04-01T09:21:24;99455.25;;;4.89;100.00
42411;BME280;28056;51.112;0.984;2023-04-01T09:24:22;99452.29;;;4.72;100.00
42411;BME280;28056;51.112;0.984;2023-04-01T09:27:03;99455.59;;;4.65;100.00
42411;BME280;28056;51.112;0.984;2023-04-01T09:29:51;99458.65;;;4.70;100.00
42411;BME280;28056;51.112;0.984;2023-04-01T09:32:38;99462.15;;;4.69;100.00
42411;BME280;28056;51.112;0.984;2023-04-01T09:35:20;99464.08;;;4.64;100.00
42411;BME280;28056;51.112;0.984;2023-04-01T09:37:54;99465.62;;;4.60;100.00
42411;BME280;28056;51.112;0.984;2023-04-01T09:40:37;99473.10;;;4.55;100.00
42411;BME280;28056;51.112;0.984;2023-04-01T09:43:25;99482.60;;;4.99;100.00
42411;BME280;28056;51.112;0.984;2023-04-01T09:46:04;99481.77;;;4.53;100.00
42411;BME280;28056;51.112;0.984;2023-04-01T09:48:57;99486.99;;;4.97;100.00
42411;BME280;28056;51.112;0.984;2023-04-01T09:51:37;99490.75;;;4.69;100.00
42411;BME280;28056;51.112;0.984;2023-04-01T09:54:17;99490.04;;;4.90;100.00
42411;BME280;28056;51.112;0.984;2023-04-01T09:57:11;99493.74;;;4.82;100.00
42411;BME280;28056;51.112;0.984;2023-04-01T10:00:02;99498.98;;;4.80;100.00
42411;BME280;28056;51.112;0.984;2023-04-01T10:03:01;99492.32;;;4.75;100.00
42411;BME280;28056;51.112;0.984;2023-04-01T10:06:38;99498.04;;;4.56;100.00
42411;BME280;28056;51.112;0.984;2023-04-01T10:10:54;99501.19;;;5.03;100.00
42411;BME280;28056;51.112;0.984;2023-04-01T10:16:03;99506.25;;;5.34;100.00
42411;BME280;28056;51.112;0.984;2023-04-01T10:19:09;99512.85;;;4.88;100.00
42411;BME280;28056;51.112;0.984;2023-04-01T10:22:00;99511.87;;;5.26;100.00
42411;BME280;28056;51.112;0.984;2023-04-01T10:25:24;99511.48;;;5.46;100.00
42411;BME280;28056;51.112;0.984;2023-04-01T10:28:16;99506.30;;;5.04;100.00
42411;BME280;28056;51.112;0.984;2023-04-01T10:31:03;99512.41;;;4.95;100.00
42411;BME280;28056;51.112;0.984;2023-04-01T10:34:05;99517.17;;;5.15;100.00
42411;BME280;28056;51.112;0.984;2023-04-01T10:36:47;99519.42;;;5.23;100.00
42411;BME280;28056;51.112;0.984;2023-04-01T10:39:33;99520.60;;;4.81;100.00
42411;BME280;28056;51.112;0.984;2023-04-01T10:45:35;99525.90;;;5.77;100.00
42411;BME280;28056;51.112;0.984;2023-04-01T10:48:41;99530.46;;;4.81;100.00
42411;BME280;28056;51.112;0.984;2023-04-01T10:51:24;99534.99;;;4.94;100.00
42411;BME280;28056;51.112;0.984;2023-04-01T10:54:19;99538.21;;;5.25;100.00
42411;BME280;28056;51.112;0.984;2023-04-01T10:56:53;99540.01;;;5.37;100.00
42411;BME280;28056;51.112;0.984;2023-04-01T11:00:48;99537.33;;;5.42;100.00
42411;BME280;28056;51.112;0.984;2023-04-01T11:03:46;99541.41;;;5.93;100.00
42411;BME280;28056;51.112;0.984;2023-04-01T11:07:50;99542.65;;;5.63;100.00
42411;BME280;28056;51.112;0.984;2023-04-01T11:13:17;99548.59;;;5.75;100.00
42411;BME280;28056;51.112;0.984;2023-04-01T11:16:45;99554.18;;;5.16;100.00
42411;BME280;28056;51.112;0.984;2023-04-01T11:22:34;99564.15;;;5.53;100.00
42411;BME280;28056;51.112;0.984;2023-04-01T11:25:48;99566.59;;;5.24;100.00
42411;BME280;28056;51.112;0.984;2023-04-01T11:28:44;99564.51;;;5.25;100.00
42411;BME280;28056;51.112;0.984;2023-04-01T11:31:26;99567.25;;;4.92;100.00
42411;BME280;28056;51.112;0.984;2023-04-01T11:34:04;99576.97;;;5.09;100.00
42411;BME280;28056;51.112;0.984;2023-04-01T11:36:41;99582.20;;;5.19;100.00
42411;BME280;28056;51.112;0.984;2023-04-01T11:39:19;99585.78;;;5.68;100.00
42411;BME280;28056;51.112;0.984;2023-04-01T11:41:56;99588.18;;;5.96;100.00
42411;BME280;28056;51.112;0.984;2023-04-01T11:44:29;99583.45;;;5.55;100.00
42411;BME280;28056;51.112;0.984;2023-04-01T11:47:10;99591.79;;;5.92;100.00
42411;BME280;28056;51.112;0.984;2023-04-01T11:49:51;99593.58;;;5.93;100.00
42411;BME280;28056;51.112;0.984;2023-04-01T11:52:33;99602.76;;;5.90;100.00
42411;BME280;28056;51.112;0.984;2023-04-01T11:55:15;99607.06;;;6.04;100.00
42411;BME280;28056;51.112;0.984;2023-04-01T11:58:03;99608.67;;;6.28;100.00
42411;BME280;28056;51.112;0.984;2023-04-01T12:00:48;99612.69;;;5.82;100.00
42411;BME280;28056;51.112;0.984;2023-04-01T12:03:35;99622.54;;;6.24;100.00
42411;BME280;28056;51.112;0.984;2023-04-01T12:06:10;99626.86;;;5.89;100.00
42411;BME280;28056;51.112;0.984;2023-04-01T12:08:49;99624.39;;;5.95;100.00
42411;BME280;28056;51.112;0.984;2023-04-01T12:11:26;99620.94;;;6.11;100.00
42411;BME280;28056;51.112;0.984;2023-04-01T12:14:04;99632.72;;;6.46;100.00
42411;BME280;28056;51.112;0.984;2023-04-01T12:16:44;99629.90;;;6.40;100.00
42411;BME280;28056;51.112;0.984;2023-04-01T12:19:19;99636.14;;;5.96;100.00
42411;BME280;28056;51.112;0.984;2023-04-01T12:21:58;99643.37;;;5.89;100.00
42411;BME280;28056;51.112;0.984;2023-04-01T12:24:45;99646.56;;;5.98;100.00
42411;BME280;28056;51.112;0.984;2023-04-01T12:27:39;99645.61;;;5.51;100.00
42411;BME280;28056;51.112;0.984;2023-04-01T12:30:21;99653.22;;;5.70;100.00
42411;BME280;28056;51.112;0.984;2023-04-01T12:33:04;99653.41;;;6.12;100.00
42411;BME280;28056;51.112;0.984;2023-04-01T12:35:47;99650.57;;;5.97;100.00
42411;BME280;28056;51.112;0.984;2023-04-01T12:38:32;99655.18;;;6.15;100.00
42411;BME280;28056;51.112;0.984;2023-04-01T12:41:09;99660.73;;;6.13;100.00
42411;BME280;28056;51.112;0.984;2023-04-01T12:44:13;99663.06;;;6.20;100.00
42411;BME280;28056;51.112;0.984;2023-04-01T12:49:19;99674.11;;;6.19;100.00
42411;BME280;28056;51.112;0.984;2023-04-01T12:51:59;99677.17;;;5.23;100.00
42411;BME280;28056;51.112;0.984;2023-04-01T12:55:47;99683.83;;;5.34;100.00
42411;BME280;28056;51.112;0.984;2023-04-01T12:59:33;99687.49;;;4.97;100.00
42411;BME280;28056;51.112;0.984;2023-04-01T13:02:12;99694.10;;;5.79;100.00
42411;BME280;28056;51.112;0.984;2023-04-01T13:06:07;99695.62;;;5.67;100.00
42411;BME280;28056;51.112;0.984;2023-04-01T13:08:44;99702.71;;;5.92;100.00
42411;BME280;28056;51.112;0.984;2023-04-01T13:11:22;99701.46;;;5.38;100.00
42411;BME280;28056;51.112;0.984;2023-04-01T13:14:13;99706.40;;;5.41;100.00
42411;BME280;28056;51.112;0.984;2023-04-01T13:16:51;99712.50;;;5.19;100.00
42411;BME280;28056;51.112;0.984;2023-04-01T13:19:27;99715.42;;;5.22;100.00
42411;BME280;28056;51.112;0.984;2023-04-01T13:22:03;99711.61;;;5.60;100.00
42411;BME280;28056;51.112;0.984;2023-04-01T13:24:42;99719.00;;;5.85;100.00
42411;BME280;28056;51.112;0.984;2023-04-01T13:27:16;99718.18;;;5.90;100.00
42411;BME280;28056;51.112;0.984;2023-04-01T13:29:56;99726.68;;;5.89;100.00
42411;BME280;28056;51.112;0.984;2023-04-01T13:32:32;99732.38;;;6.15;100.00
42411;BME280;28056;51.112;0.984;2023-04-01T13:35:15;99733.82;;;5.49;100.00
42411;BME280;28056;51.112;0.984;2023-04-01T13:37:56;99739.28;;;5.76;100.00
42411;BME280;28056;51.112;0.984;2023-04-01T13:40:34;99740.57;;;6.00;100.00
42411;BME280;28056;51.112;0.984;2023-04-01T13:43:10;99745.25;;;5.89;100.00
42411;BME280;28056;51.112;0.984;2023-04-01T13:45:58;99744.59;;;5.83;100.00
42411;BME280;28056;51.112;0.984;2023-04-01T13:48:58;99746.31;;;5.48;100.00
42411;BME280;28056;51.112;0.984;2023-04-01T13:52:14;99758.87;;;5.32;100.00
42411;BME280;28056;51.112;0.984;2023-04-01T13:54:57;99766.95;;;5.76;100.00
42411;BME280;28056;51.112;0.984;2023-04-01T13:57:43;99770.24;;;5.61;100.00
42411;BME280;28056;51.112;0.984;2023-04-01T14:00:27;99769.39;;;5.74;100.00
42411;BME280;28056;51.112;0.984;2023-04-01T14:03:27;99773.18;;;5.36;100.00
42411;BME280;28056;51.112;0.984;2023-04-01T14:06:05;99773.58;;;6.00;100.00
42411;BME280;28056;51.112;0.984;2023-04-01T14:08:51;99779.69;;;5.83;100.00
42411;BME280;28056;51.112;0.984;2023-04-01T14:11:30;99786.67;;;6.19;100.00
42411;BME280;28056;51.112;0.984;2023-04-01T14:14:07;99787.68;;;6.34;100.00
42411;BME280;28056;51.112;0.984;2023-04-01T14:16:57;99788.28;;;6.09;100.00
42411;BME280;28056;51.112;0.984;2023-04-01T14:19:39;99790.47;;;6.10;100.00